TimeSAST,TemperatureF,Dew PointF,Humidity,Sea Level PressureIn,VisibilityMPH,Wind Direction,Wind SpeedMPH,Gust SpeedMPH,PrecipitationIn,Events,Conditions,WindDirDegrees,DateUTC
12:00 AM,53.6,50.0,88,30.06,6.2,Variable,2.3,-,N/A,,Mostly Cloudy,0,2012-09-30 22:00:00
1:00 AM,50.0,48.2,94,30.06,-9999.0,WNW,4.6,-,N/A,,Clear,290,2012-09-30 23:00:00
2:00 AM,50,48,90,30.06,12,WNW,4.6,,,,,300,2012-10-01 00:00:00
2:00 AM,50.0,48.2,94,30.04,-9999.0,WNW,4.6,-,N/A,,Clear,300,2012-10-01 00:00:00
3:00 AM,50.0,46.4,87,30.01,-9999.0,North,3.5,-,N/A,,Clear,350,2012-10-01 01:00:00
4:00 AM,50.0,48.2,94,29.98,-9999.0,North,3.5,-,N/A,,Clear,10,2012-10-01 02:00:00
5:00 AM,48,46,89,30.01,12,NNW,3.5,,,,,330,2012-10-01 03:00:00
5:00 AM,48.2,46.4,93,29.98,-9999.0,NNW,3.5,-,N/A,,Clear,330,2012-10-01 03:00:00
6:00 AM,50.0,48.2,94,29.98,-9999.0,North,3.5,-,N/A,,Clear,10,2012-10-01 04:00:00
7:00 AM,50.0,48.2,94,30.01,-9999.0,Calm,Calm,-,N/A,,Clear,0,2012-10-01 05:00:00
8:00 AM,56,53,88,30.03,12,,1.2,,,,Clear,,2012-10-01 06:00:00
8:00 AM,57.2,53.6,88,30.01,-9999.0,Variable,2.3,-,N/A,,Clear,0,2012-10-01 06:00:00
9:00 AM,60.8,55.4,82,30.04,-9999.0,WSW,3.5,-,N/A,,Clear,240,2012-10-01 07:00:00
10:00 AM,68.0,55.4,64,30.04,-9999.0,West,8.1,-,N/A,,Clear,260,2012-10-01 08:00:00
11:00 AM,67,54,54,30.04,12,SSW,10.4,,,,Scattered Clouds,200,2012-10-01 09:00:00
11:00 AM,66.2,53.6,64,30.04,6.2,SSW,11.5,-,N/A,,Partly Cloudy,200,2012-10-01 09:00:00
12:00 PM,64.4,55.4,73,30.04,6.2,SSW,12.7,-,N/A,,Scattered Clouds,200,2012-10-01 10:00:00
1:00 PM,62.6,55.4,77,30.06,6.2,SW,11.5,-,N/A,,Mostly Cloudy,220,2012-10-01 11:00:00
2:00 PM,62,54,66,30.07,12,SSW,11.5,,,,Mostly Cloudy,200,2012-10-01 12:00:00
2:00 PM,60.8,53.6,77,30.06,6.2,SSW,11.5,-,N/A,,Mostly Cloudy,200,2012-10-01 12:00:00
3:00 PM,62.6,53.6,72,30.04,6.2,South,8.1,-,N/A,,Mostly Cloudy,190,2012-10-01 13:00:00
4:00 PM,60.8,55.4,82,30.06,6.2,South,8.1,-,N/A,,Mostly Cloudy,170,2012-10-01 14:00:00
5:00 PM,60,54,74,30.07,12,SE,4.6,,,,Mostly Cloudy,140,2012-10-01 15:00:00
5:00 PM,60.8,53.6,77,30.06,6.2,SE,5.8,-,N/A,,Mostly Cloudy,140,2012-10-01 15:00:00
6:00 PM,60.8,51.8,72,30.06,6.2,South,3.5,-,N/A,,Mostly Cloudy,170,2012-10-01 16:00:00
7:00 PM,60.8,51.8,72,30.06,6.2,Calm,Calm,-,N/A,,Mostly Cloudy,0,2012-10-01 17:00:00
8:00 PM,59,54,79,30.10,12,North,3.5,,,,Mostly Cloudy,350,2012-10-01 18:00:00
8:00 PM,59.0,53.6,82,30.06,6.2,North,2.3,-,N/A,,Mostly Cloudy,360,2012-10-01 18:00:00
9:00 PM,59.0,53.6,82,30.09,6.2,North,3.5,-,N/A,,Overcast,360,2012-10-01 19:00:00
10:00 PM,57.2,51.8,82,30.06,6.2,North,2.3,-,N/A,,Mostly Cloudy,350,2012-10-01 20:00:00
11:00 PM,57.2,51.8,82,30.06,-9999.0,Variable,1.2,-,N/A,,Clear,0,2012-10-01 21:00:00